Nearby METAR Reports

 

KNUQ - Moffett Nas/Mtn, California, USA
Distance from station: N 9mi, 14km
Updated: Thu, 23-Mar-2017 10:56pm PDT
Mostly Cloudy
Mostly Cloudy
 Wind from calm
Wind: Calm
Temperature: 54°F , 12°C
Dew Point: 43°F , 6°C
Humidity: 67%
Barometer: 30.24 inHg , 1024 hPa
Clouds: Mostly Cloudy
Visibility: 10 miles , 16 km
Cloud details: Partly Cloudy 10000 ft
Mostly Cloudy 11000 ft
2017/03/24 05:56 KNUQ 240556Z 00000KT 10SM SCT100 BKN110 12/06 A3024 RMK AO2 SLP241 T01220061 10161 20117 51000
KSJC - San Jose, California, USA
Distance from station: NE 9mi, 14km
Updated: Thu, 23-Mar-2017 10:53pm PDT
Mostly Cloudy
Mostly Cloudy
 Wind from calm
Wind: Calm
Temperature: 55°F , 13°C
Dew Point: 43°F , 6°C
Humidity: 63%
Barometer: 30.23 inHg , 1023.7 hPa
Clouds: Mostly Cloudy
Visibility: 10 miles , 16 km
Cloud details: Few Clouds 1500 ft
Mostly Cloudy 11000 ft
2017/03/24 05:53 KSJC 240553Z 00000KT 10SM FEW015 BKN110 13/06 A3023 RMK AO2 SLP237 T01280061 10167 20122 51002
 
KRHV - San Jose/Reid, California, USA
Distance from station: ENE 12mi, 19km
Updated: Thu, 23-Mar-2017 9:47pm PDT
NOT Current
Clear
Clear
 Wind from calm
Wind: Calm
Temperature: 54°F , 12°C
Dew Point: 43°F , 6°C
Humidity: 67%
Barometer: 30.25 inHg , 1024.4 hPa
Clouds: Clear
Visibility: 10 miles , 16 km
2017/03/24 04:47 KRHV 240447Z 00000KT 10SM SKC 12/06 A3025 RMK LAST
KPAO - Palo Alto, California, USA
Distance from station: NNW 14mi, 23km
Updated: Thu, 23-Mar-2017 8:47pm PDT
NOT Current
Mostly Cloudy
Mostly Cloudy
 Wind from SW
Wind: SW 7 mph , 11 km/h
Temperature: 55°F , 13°C
Dew Point: 45°F , 7°C
Humidity: 67%
Barometer: 30.24 inHg , 1024 hPa
Clouds: Mostly Cloudy
Visibility: 10 miles , 16 km
Cloud details: Partly Cloudy 4000 ft
Mostly Cloudy 8000 ft
2017/03/24 03:47 KPAO 240347Z 22006KT 10SM SCT040 BKN080 13/07 A3024 RMK LAST
 
KSQL - San Carlos Airpo, California, USA
Distance from station: NW 21mi, 34km
Updated: Thu, 23-Mar-2017 10:55pm PDT
Overcast
Overcast
 Wind from SSE
Wind: SSE 5 mph , 7 km/h
Temperature: 54°F , 12°C
Dew Point: 45°F , 7°C
Humidity: 72%
Barometer: 30.23 inHg , 1023.7 hPa
Clouds: Overcast
Visibility: 10 miles , 16 km
Cloud details: Partly Cloudy 7500 ft
Overcast 11000 ft
2017/03/24 05:55 KSQL 240555Z AUTO 16004KT 10SM SCT075 OVC110 12/07 A3023 RMK AO2
KWVI - Watsonville, California, USA
Distance from station: SSE 27mi, 44km
Updated: Thu, 23-Mar-2017 10:53pm PDT
Mostly Cloudy
Mostly Cloudy
 Wind from calm
Wind: Calm
Temperature: 48°F , 9°C
Dew Point: 46°F , 8°C
Humidity: 94%
Barometer: 30.26 inHg , 1024.7 hPa
Clouds: Mostly Cloudy
Visibility: 10 miles , 16 km
Cloud details: Partly Cloudy 9000 ft
Mostly Cloudy 12000 ft
2017/03/24 05:53 KWVI 240553Z AUTO 00000KT 10SM SCT090 BKN120 09/08 A3026 RMK AO2 SLP247 T00890083 10144 20089 53004
 
KHWD - Hayward, California, USA
Distance from station: N 28mi, 44km
Updated: Thu, 23-Mar-2017 10:54pm PDT
Overcast
Overcast
 Wind from calm
Wind: Calm
Temperature: 55°F , 13°C
Dew Point: 41°F , 5°C
Humidity: 59%
Barometer: 30.22 inHg , 1023.4 hPa
Clouds: Overcast
Visibility: 10 miles , 16 km
Cloud details: Overcast 11000 ft
2017/03/24 05:54 KHWD 240554Z 00000KT 10SM OVC110 13/05 A3022 RMK AO2 SLP244 T01330050 10150 20128 57003
KSFO - San Francisco, California, USA
Distance from station: NW 30mi, 49km
Updated: Thu, 23-Mar-2017 10:56pm PDT
Mostly Cloudy
Mostly Cloudy
 Wind from SSE
Wind: SSE 8 mph , 13 km/h
Temperature: 55°F , 13°C
Dew Point: 43°F , 6°C
Humidity: 63%
Barometer: 30.22 inHg , 1023.4 hPa
Clouds: Mostly Cloudy
Visibility: 10 miles , 16 km
Cloud details: Partly Cloudy 9000 ft
Mostly Cloudy 10000 ft
2017/03/24 05:56 KSFO 240556Z 15007KT 10SM SCT090 BKN100 13/06 A3022 RMK AO2 SLP233 T01280056 10144 20122 58001 $
 
KHAF - Half Moon Bay, California, USA
Distance from station: WNW 31mi, 50km
Updated: Thu, 23-Mar-2017 10:55pm PDT
Overcast
Overcast
 Wind from SE
Wind: SE 8 mph , 13 km/h
Temperature: 54°F , 12°C
Dew Point: 46°F , 8°C
Humidity: 77%
Barometer: 30.22 inHg , 1023.4 hPa
Clouds: Overcast
Visibility: 10 miles , 16 km
Cloud details: Overcast 8500 ft
2017/03/24 05:55 KHAF 240555Z AUTO 13007KT 10SM OVC085 12/08 A3022 RMK AO2
KOAK - Oakland, California, USA
Distance from station: NNW 31mi, 50km
Updated: Thu, 23-Mar-2017 10:53pm PDT
Mostly Cloudy
Mostly Cloudy
 Wind from S
Wind: S 8 mph , 13 km/h
Temperature: 55°F , 13°C
Dew Point: 45°F , 7°C
Humidity: 67%
Barometer: 30.22 inHg , 1023.4 hPa
Clouds: Mostly Cloudy
Visibility: 10 miles , 16 km
Cloud details: Mostly Cloudy 11000 ft
Mostly Cloudy 18000 ft
2017/03/24 05:53 KOAK 240553Z 17007KT 10SM BKN110 BKN180 13/07 A3022 RMK AO2 SLP234 T01330072 10156 20128 58003
 
KLVK - Livermore, California, USA
Distance from station: NNE 31mi, 51km
Updated: Thu, 23-Mar-2017 10:53pm PDT
Mostly Cloudy
Mostly Cloudy
 Wind from SSE
Wind: SSE 3 mph , 6 km/h
Temperature: 52°F , 11°C
Dew Point: 43°F , 6°C
Humidity: 72%
Barometer: 30.22 inHg , 1023.4 hPa
Clouds: Mostly Cloudy
Visibility: 10 miles , 16 km
Cloud details: Mostly Cloudy 11000 ft
2017/03/24 05:53 KLVK 240553Z AUTO 16003KT 10SM BKN110 11/06 A3022 RMK AO2 SLP234 T01110061 10161 20106 55000 TSNO
KCVH - Hollister Muni, California, USA
Distance from station: SE 42mi, 68km
Updated: Thu, 23-Mar-2017 10:50pm PDT
Clear
Clear
 Wind from calm
Wind: Calm
Temperature: 46°F , 8°C
Dew Point: 45°F , 7°C
Humidity: 93%
Barometer: 30.26 inHg , 1024.7 hPa
Clouds: Clear
Visibility: 10 miles , 16 km
2017/03/24 05:50 KCVH 240550Z AUTO 00000KT 10SM CLR 08/07 A3026 RMK AO1
 
KSNS - Salinas, California, USA
Distance from station: SSE 48mi, 77km
Updated: Thu, 23-Mar-2017 10:53pm PDT
Mostly Cloudy
Mostly Cloudy
 Wind from W
Wind: W 3 mph , 6 km/h
Temperature: 52°F , 11°C
Dew Point: 45°F , 7°C
Humidity: 77%
Barometer: 30.25 inHg , 1024.4 hPa
Clouds: Mostly Cloudy
Visibility: 10 miles , 16 km
Cloud details: Mostly Cloudy 12000 ft
2017/03/24 05:53 KSNS 240553Z AUTO 28003KT 10SM BKN120 11/07 A3025 RMK AO2 SLP253 T01060067 10150 20094 53001
KMRY - Monterey, California, USA
Distance from station: SSE 49mi, 78km
Updated: Thu, 23-Mar-2017 10:54pm PDT
Mostly Cloudy
Mostly Cloudy
 Wind from ESE
Wind: ESE 3 mph , 6 km/h
Temperature: 50°F , 10°C
Dew Point: 45°F , 7°C
Humidity: 82%
Barometer: 30.25 inHg , 1024.4 hPa
Clouds: Mostly Cloudy
Visibility: 10 miles , 16 km
Cloud details: Few Clouds 9000 ft
Mostly Cloudy 12000 ft
2017/03/24 05:54 KMRY 240554Z AUTO 11003KT 10SM FEW090 BKN120 10/07 A3025 RMK AO2 SLP256 T01000067 10139 20094 58001
 
KCCR - Concord, California, USA
Distance from station: N 50mi, 81km
Updated: Thu, 23-Mar-2017 10:53pm PDT
Overcast
Overcast
 Wind from SSW
Wind: SSW 7 mph , 11 km/h
Temperature: 55°F , 13°C
Dew Point: 45°F , 7°C
Humidity: 67%
Barometer: 30.22 inHg , 1023.4 hPa
Clouds: Overcast
Visibility: 10 miles , 16 km
Cloud details: Mostly Cloudy 8500 ft
Overcast 11000 ft
2017/03/24 05:53 KCCR 240553Z AUTO 20006KT 10SM BKN085 OVC110 13/07 A3022 RMK AO2 SLP220 T01280072 10167 20128 58001

Metar display script from Saratoga-Weather.org